Terminal Aerodrome Forecast
Issued by NWS Albuquerque, NM

Home | Current Version | Previous Version | Text Only | Print | Product List | Glossary On
Versions: 1 2 3 4 5 6 7 8 9 10 11
000
FTUS45 KABQ 221700
TAFABQ
TAF
KABQ 221739Z 2218/2318 21007KT P6SM SCT050 SCT090
      TEMPO 2218/2220 27010KT
     FM222000 31015G25KT P6SM SCT050 SCT080
     FM222100 32025G32KT P6SM VCSH SCT050 SCT080
     FM230200 33018G32KT P6SM VCSH SCT040 BKN070
     FM230900 36012G20KT P6SM SCT040 SCT060=

USA.gov is the U.S. government's official web portal to all federal, state and local government web resources and services.